sensor_id;sensor_type;location;lat;lon;timestamp;P1;durP1;ratioP1;P2;durP2;ratioP2
32321;SDS011;61553;48.994;8.940;2023-05-07T00:01:35;8.45;;;3.38;;
32321;SDS011;61553;48.994;8.940;2023-05-07T00:04:00;4.80;;;2.40;;
32321;SDS011;61553;48.994;8.940;2023-05-07T00:06:27;7.30;;;2.95;;
32321;SDS011;61553;48.994;8.940;2023-05-07T00:08:53;6.45;;;2.33;;
32321;SDS011;61553;48.994;8.940;2023-05-07T00:11:19;4.30;;;2.35;;
32321;SDS011;61553;48.994;8.940;2023-05-07T00:13:45;4.20;;;2.65;;
32321;SDS011;61553;48.994;8.940;2023-05-07T00:16:11;8.80;;;2.60;;
32321;SDS011;61553;48.994;8.940;2023-05-07T00:18:37;4.30;;;2.20;;
32321;SDS011;61553;48.994;8.940;2023-05-07T00:21:03;4.90;;;2.08;;
32321;SDS011;61553;48.994;8.940;2023-05-07T00:23:28;4.43;;;2.17;;
32321;SDS011;61553;48.994;8.940;2023-05-07T00:25:54;4.95;;;2.20;;
32321;SDS011;61553;48.994;8.940;2023-05-07T00:28:20;4.93;;;2.50;;
32321;SDS011;61553;48.994;8.940;2023-05-07T00:30:45;6.35;;;2.10;;
32321;SDS011;61553;48.994;8.940;2023-05-07T00:33:11;4.30;;;2.45;;
32321;SDS011;61553;48.994;8.940;2023-05-07T00:35:36;5.43;;;2.42;;
32321;SDS011;61553;48.994;8.940;2023-05-07T00:38:02;4.72;;;2.03;;
32321;SDS011;61553;48.994;8.940;2023-05-07T00:40:28;7.20;;;2.42;;
32321;SDS011;61553;48.994;8.940;2023-05-07T00:42:53;4.88;;;2.13;;
32321;SDS011;61553;48.994;8.940;2023-05-07T00:45:23;5.85;;;2.40;;
32321;SDS011;61553;48.994;8.940;2023-05-07T00:48:00;5.22;;;2.90;;
32321;SDS011;61553;48.994;8.940;2023-05-07T00:50:27;6.68;;;2.30;;
32321;SDS011;61553;48.994;8.940;2023-05-07T00:52:53;5.80;;;1.95;;
32321;SDS011;61553;48.994;8.940;2023-05-07T00:55:20;3.33;;;1.77;;
32321;SDS011;61553;48.994;8.940;2023-05-07T00:57:46;6.30;;;2.25;;
32321;SDS011;61553;48.994;8.940;2023-05-07T01:00:12;7.88;;;2.47;;
32321;SDS011;61553;48.994;8.940;2023-05-07T01:02:41;8.18;;;2.10;;
32321;SDS011;61553;48.994;8.940;2023-05-07T01:05:16;6.32;;;2.88;;
32321;SDS011;61553;48.994;8.940;2023-05-07T01:07:43;3.90;;;2.35;;
32321;SDS011;61553;48.994;8.940;2023-05-07T01:10:10;8.55;;;2.80;;
32321;SDS011;61553;48.994;8.940;2023-05-07T01:12:37;8.60;;;2.80;;
32321;SDS011;61553;48.994;8.940;2023-05-07T01:15:05;6.35;;;2.47;;
32321;SDS011;61553;48.994;8.940;2023-05-07T01:17:33;6.13;;;2.60;;
32321;SDS011;61553;48.994;8.940;2023-05-07T01:20:07;5.72;;;2.53;;
32321;SDS011;61553;48.994;8.940;2023-05-07T01:22:35;7.38;;;2.72;;
32321;SDS011;61553;48.994;8.940;2023-05-07T01:25:02;4.97;;;3.15;;
32321;SDS011;61553;48.994;8.940;2023-05-07T01:27:29;6.25;;;2.85;;
32321;SDS011;61553;48.994;8.940;2023-05-07T01:29:55;4.45;;;2.60;;
32321;SDS011;61553;48.994;8.940;2023-05-07T01:32:25;5.95;;;2.58;;
32321;SDS011;61553;48.994;8.940;2023-05-07T01:34:57;4.90;;;2.22;;
32321;SDS011;61553;48.994;8.940;2023-05-07T01:37:23;6.28;;;2.70;;
32321;SDS011;61553;48.994;8.940;2023-05-07T01:39:50;3.83;;;2.17;;
32321;SDS011;61553;48.994;8.940;2023-05-07T01:42:17;5.93;;;2.75;;
32321;SDS011;61553;48.994;8.940;2023-05-07T01:44:43;4.38;;;2.67;;
32321;SDS011;61553;48.994;8.940;2023-05-07T01:47:09;4.68;;;2.33;;
32321;SDS011;61553;48.994;8.940;2023-05-07T01:49:34;5.03;;;2.45;;
32321;SDS011;61553;48.994;8.940;2023-05-07T01:52:00;4.22;;;2.83;;
32321;SDS011;61553;48.994;8.940;2023-05-07T01:54:26;4.50;;;2.22;;
32321;SDS011;61553;48.994;8.940;2023-05-07T01:56:53;5.82;;;2.60;;
32321;SDS011;61553;48.994;8.940;2023-05-07T01:59:18;6.40;;;2.58;;
32321;SDS011;61553;48.994;8.940;2023-05-07T02:01:44;5.00;;;2.67;;
32321;SDS011;61553;48.994;8.940;2023-05-07T02:04:10;7.10;;;2.50;;
32321;SDS011;61553;48.994;8.940;2023-05-07T02:06:35;4.30;;;2.42;;
32321;SDS011;61553;48.994;8.940;2023-05-07T02:09:01;3.65;;;2.47;;
32321;SDS011;61553;48.994;8.940;2023-05-07T02:11:27;6.40;;;2.67;;
32321;SDS011;61553;48.994;8.940;2023-05-07T02:13:52;6.25;;;2.92;;
32321;SDS011;61553;48.994;8.940;2023-05-07T02:16:18;7.75;;;3.35;;
32321;SDS011;61553;48.994;8.940;2023-05-07T02:18:44;5.00;;;3.42;;
32321;SDS011;61553;48.994;8.940;2023-05-07T02:21:10;7.00;;;3.50;;
32321;SDS011;61553;48.994;8.940;2023-05-07T02:23:36;8.85;;;4.03;;
32321;SDS011;61553;48.994;8.940;2023-05-07T02:26:01;4.93;;;3.17;;
32321;SDS011;61553;48.994;8.940;2023-05-07T02:28:28;5.35;;;3.50;;
32321;SDS011;61553;48.994;8.940;2023-05-07T02:30:54;8.10;;;3.25;;
32321;SDS011;61553;48.994;8.940;2023-05-07T02:33:19;5.10;;;3.05;;
32321;SDS011;61553;48.994;8.940;2023-05-07T02:35:45;4.75;;;3.15;;
32321;SDS011;61553;48.994;8.940;2023-05-07T02:38:11;6.57;;;2.70;;
32321;SDS011;61553;48.994;8.940;2023-05-07T02:40:36;5.32;;;2.83;;
32321;SDS011;61553;48.994;8.940;2023-05-07T02:43:04;7.22;;;2.80;;
32321;SDS011;61553;48.994;8.940;2023-05-07T02:45:30;4.72;;;2.55;;
32321;SDS011;61553;48.994;8.940;2023-05-07T02:47:57;4.40;;;2.70;;
32321;SDS011;61553;48.994;8.940;2023-05-07T02:50:23;6.15;;;2.78;;
32321;SDS011;61553;48.994;8.940;2023-05-07T02:52:48;6.63;;;3.45;;
32321;SDS011;61553;48.994;8.940;2023-05-07T02:55:14;5.18;;;3.58;;
32321;SDS011;61553;48.994;8.940;2023-05-07T02:57:40;5.63;;;4.00;;
32321;SDS011;61553;48.994;8.940;2023-05-07T03:00:15;7.38;;;3.63;;
32321;SDS011;61553;48.994;8.940;2023-05-07T03:02:43;7.22;;;3.53;;
32321;SDS011;61553;48.994;8.940;2023-05-07T03:05:09;4.75;;;3.17;;
32321;SDS011;61553;48.994;8.940;2023-05-07T03:07:35;7.50;;;3.53;;
32321;SDS011;61553;48.994;8.940;2023-05-07T03:10:02;5.35;;;2.80;;
32321;SDS011;61553;48.994;8.940;2023-05-07T03:12:28;5.88;;;3.20;;
32321;SDS011;61553;48.994;8.940;2023-05-07T03:14:54;4.45;;;2.75;;
32321;SDS011;61553;48.994;8.940;2023-05-07T03:17:21;4.30;;;2.55;;
32321;SDS011;61553;48.994;8.940;2023-05-07T03:19:47;4.28;;;2.90;;
32321;SDS011;61553;48.994;8.940;2023-05-07T03:22:13;4.85;;;2.60;;
32321;SDS011;61553;48.994;8.940;2023-05-07T03:24:39;4.78;;;2.63;;
32321;SDS011;61553;48.994;8.940;2023-05-07T03:27:04;5.38;;;2.78;;
32321;SDS011;61553;48.994;8.940;2023-05-07T03:29:30;5.90;;;3.28;;
32321;SDS011;61553;48.994;8.940;2023-05-07T03:31:56;5.97;;;2.95;;
32321;SDS011;61553;48.994;8.940;2023-05-07T03:34:21;4.95;;;2.70;;
32321;SDS011;61553;48.994;8.940;2023-05-07T03:36:48;4.82;;;3.10;;
32321;SDS011;61553;48.994;8.940;2023-05-07T03:39:14;8.73;;;3.65;;
32321;SDS011;61553;48.994;8.940;2023-05-07T03:41:39;8.30;;;3.25;;
32321;SDS011;61553;48.994;8.940;2023-05-07T03:44:05;6.72;;;3.80;;
32321;SDS011;61553;48.994;8.940;2023-05-07T03:46:31;10.00;;;4.18;;
32321;SDS011;61553;48.994;8.940;2023-05-07T03:48:57;8.35;;;3.90;;
32321;SDS011;61553;48.994;8.940;2023-05-07T03:51:23;9.43;;;4.55;;
32321;SDS011;61553;48.994;8.940;2023-05-07T03:53:49;9.55;;;3.78;;
32321;SDS011;61553;48.994;8.940;2023-05-07T03:56:17;7.65;;;3.78;;
32321;SDS011;61553;48.994;8.940;2023-05-07T03:58:43;6.32;;;3.58;;
32321;SDS011;61553;48.994;8.940;2023-05-07T04:01:09;5.57;;;3.58;;
32321;SDS011;61553;48.994;8.940;2023-05-07T04:03:35;6.40;;;3.20;;
32321;SDS011;61553;48.994;8.940;2023-05-07T04:06:01;9.07;;;3.97;;
32321;SDS011;61553;48.994;8.940;2023-05-07T04:08:26;5.68;;;3.38;;
32321;SDS011;61553;48.994;8.940;2023-05-07T04:10:55;9.88;;;3.30;;
32321;SDS011;61553;48.994;8.940;2023-05-07T04:13:22;5.32;;;3.15;;
32321;SDS011;61553;48.994;8.940;2023-05-07T04:15:47;7.25;;;3.22;;
32321;SDS011;61553;48.994;8.940;2023-05-07T04:18:14;10.27;;;4.28;;
32321;SDS011;61553;48.994;8.940;2023-05-07T04:20:40;9.65;;;4.93;;
32321;SDS011;61553;48.994;8.940;2023-05-07T04:23:06;7.68;;;4.50;;
32321;SDS011;61553;48.994;8.940;2023-05-07T04:25:32;9.05;;;4.13;;
32321;SDS011;61553;48.994;8.940;2023-05-07T04:27:58;6.70;;;4.53;;
32321;SDS011;61553;48.994;8.940;2023-05-07T04:30:23;6.72;;;3.90;;
32321;SDS011;61553;48.994;8.940;2023-05-07T04:32:49;6.63;;;4.32;;
32321;SDS011;61553;48.994;8.940;2023-05-07T04:35:15;7.55;;;4.47;;
32321;SDS011;61553;48.994;8.940;2023-05-07T04:37:41;8.05;;;4.15;;
32321;SDS011;61553;48.994;8.940;2023-05-07T04:40:07;8.20;;;4.45;;
32321;SDS011;61553;48.994;8.940;2023-05-07T04:42:33;8.02;;;4.13;;
32321;SDS011;61553;48.994;8.940;2023-05-07T04:44:58;7.43;;;3.70;;
32321;SDS011;61553;48.994;8.940;2023-05-07T04:47:25;9.05;;;4.10;;
32321;SDS011;61553;48.994;8.940;2023-05-07T04:49:50;6.93;;;3.65;;
32321;SDS011;61553;48.994;8.940;2023-05-07T04:52:16;5.75;;;3.50;;
32321;SDS011;61553;48.994;8.940;2023-05-07T04:54:42;9.48;;;3.70;;
32321;SDS011;61553;48.994;8.940;2023-05-07T04:57:07;8.32;;;4.07;;
32321;SDS011;61553;48.994;8.940;2023-05-07T04:59:33;13.55;;;3.75;;
32321;SDS011;61553;48.994;8.940;2023-05-07T05:01:59;7.68;;;3.65;;
32321;SDS011;61553;48.994;8.940;2023-05-07T05:04:25;7.40;;;3.80;;
32321;SDS011;61553;48.994;8.940;2023-05-07T05:06:50;8.50;;;3.40;;
32321;SDS011;61553;48.994;8.940;2023-05-07T05:09:16;7.97;;;3.67;;
32321;SDS011;61553;48.994;8.940;2023-05-07T05:11:42;8.68;;;3.10;;
32321;SDS011;61553;48.994;8.940;2023-05-07T05:14:08;7.53;;;4.65;;
32321;SDS011;61553;48.994;8.940;2023-05-07T05:16:33;7.13;;;4.43;;
32321;SDS011;61553;48.994;8.940;2023-05-07T05:18:59;7.13;;;3.55;;
32321;SDS011;61553;48.994;8.940;2023-05-07T05:21:26;5.47;;;2.55;;
32321;SDS011;61553;48.994;8.940;2023-05-07T05:23:52;5.22;;;3.30;;
32321;SDS011;61553;48.994;8.940;2023-05-07T05:26:18;8.88;;;2.67;;
32321;SDS011;61553;48.994;8.940;2023-05-07T05:28:43;4.05;;;2.90;;
32321;SDS011;61553;48.994;8.940;2023-05-07T05:31:09;3.92;;;2.50;;
32321;SDS011;61553;48.994;8.940;2023-05-07T05:33:35;6.10;;;3.35;;
32321;SDS011;61553;48.994;8.940;2023-05-07T05:36:01;7.25;;;4.60;;
32321;SDS011;61553;48.994;8.940;2023-05-07T05:38:26;8.60;;;3.40;;
32321;SDS011;61553;48.994;8.940;2023-05-07T05:40:52;5.55;;;3.97;;
32321;SDS011;61553;48.994;8.940;2023-05-07T05:43:18;6.05;;;3.25;;
32321;SDS011;61553;48.994;8.940;2023-05-07T05:45:43;4.97;;;2.90;;
32321;SDS011;61553;48.994;8.940;2023-05-07T05:48:09;4.90;;;3.10;;
32321;SDS011;61553;48.994;8.940;2023-05-07T05:50:35;7.40;;;3.60;;
32321;SDS011;61553;48.994;8.940;2023-05-07T05:53:01;8.20;;;3.92;;
32321;SDS011;61553;48.994;8.940;2023-05-07T05:55:27;6.55;;;3.45;;
32321;SDS011;61553;48.994;8.940;2023-05-07T05:57:53;8.68;;;3.60;;
32321;SDS011;61553;48.994;8.940;2023-05-07T06:00:18;6.55;;;3.42;;
32321;SDS011;61553;48.994;8.940;2023-05-07T06:02:47;6.40;;;3.47;;
32321;SDS011;61553;48.994;8.940;2023-05-07T06:05:13;5.70;;;3.22;;
32321;SDS011;61553;48.994;8.940;2023-05-07T06:07:39;6.35;;;3.80;;
32321;SDS011;61553;48.994;8.940;2023-05-07T06:10:04;7.88;;;5.18;;
32321;SDS011;61553;48.994;8.940;2023-05-07T06:12:31;5.30;;;3.72;;
32321;SDS011;61553;48.994;8.940;2023-05-07T06:14:56;5.38;;;3.30;;
32321;SDS011;61553;48.994;8.940;2023-05-07T06:17:22;6.10;;;3.58;;
32321;SDS011;61553;48.994;8.940;2023-05-07T06:19:48;14.80;;;9.85;;
32321;SDS011;61553;48.994;8.940;2023-05-07T06:22:13;9.63;;;6.88;;
32321;SDS011;61553;48.994;8.940;2023-05-07T06:24:39;18.50;;;10.02;;
32321;SDS011;61553;48.994;8.940;2023-05-07T06:27:04;18.55;;;12.18;;
32321;SDS011;61553;48.994;8.940;2023-05-07T06:29:30;28.98;;;18.27;;
32321;SDS011;61553;48.994;8.940;2023-05-07T06:32:05;11.23;;;5.35;;
32321;SDS011;61553;48.994;8.940;2023-05-07T06:34:34;5.20;;;3.45;;
32321;SDS011;61553;48.994;8.940;2023-05-07T06:37:00;4.53;;;3.10;;
32321;SDS011;61553;48.994;8.940;2023-05-07T06:39:26;5.78;;;3.40;;
32321;SDS011;61553;48.994;8.940;2023-05-07T06:41:52;8.73;;;5.03;;
32321;SDS011;61553;48.994;8.940;2023-05-07T06:44:18;6.80;;;3.42;;
32321;SDS011;61553;48.994;8.940;2023-05-07T06:46:43;6.88;;;4.00;;
32321;SDS011;61553;48.994;8.940;2023-05-07T06:49:10;7.43;;;3.28;;
32321;SDS011;61553;48.994;8.940;2023-05-07T06:51:36;5.75;;;2.90;;
32321;SDS011;61553;48.994;8.940;2023-05-07T06:54:01;4.47;;;2.53;;
32321;SDS011;61553;48.994;8.940;2023-05-07T06:56:29;5.13;;;2.85;;
32321;SDS011;61553;48.994;8.940;2023-05-07T06:58:55;5.32;;;2.63;;
32321;SDS011;61553;48.994;8.940;2023-05-07T07:01:20;4.55;;;3.17;;
32321;SDS011;61553;48.994;8.940;2023-05-07T07:03:46;5.10;;;2.13;;
32321;SDS011;61553;48.994;8.940;2023-05-07T07:06:12;4.82;;;2.08;;
32321;SDS011;61553;48.994;8.940;2023-05-07T07:08:37;3.83;;;2.28;;
32321;SDS011;61553;48.994;8.940;2023-05-07T07:11:04;4.25;;;2.25;;
32321;SDS011;61553;48.994;8.940;2023-05-07T07:13:30;4.15;;;2.03;;
32321;SDS011;61553;48.994;8.940;2023-05-07T07:15:55;4.18;;;2.00;;
32321;SDS011;61553;48.994;8.940;2023-05-07T07:18:21;4.20;;;2.03;;
32321;SDS011;61553;48.994;8.940;2023-05-07T07:20:47;4.00;;;2.08;;
32321;SDS011;61553;48.994;8.940;2023-05-07T07:23:13;4.40;;;2.20;;
32321;SDS011;61553;48.994;8.940;2023-05-07T07:25:39;7.25;;;1.90;;
32321;SDS011;61553;48.994;8.940;2023-05-07T07:28:05;4.72;;;2.10;;
32321;SDS011;61553;48.994;8.940;2023-05-07T07:30:31;2.65;;;1.98;;
32321;SDS011;61553;48.994;8.940;2023-05-07T07:32:56;3.67;;;2.20;;
32321;SDS011;61553;48.994;8.940;2023-05-07T07:35:27;4.28;;;2.20;;
32321;SDS011;61553;48.994;8.940;2023-05-07T07:37:53;3.50;;;2.00;;
32321;SDS011;61553;48.994;8.940;2023-05-07T07:40:19;5.28;;;2.10;;
32321;SDS011;61553;48.994;8.940;2023-05-07T07:42:45;5.07;;;2.50;;
32321;SDS011;61553;48.994;8.940;2023-05-07T07:45:11;5.75;;;2.35;;
32321;SDS011;61553;48.994;8.940;2023-05-07T07:47:37;4.40;;;2.17;;
32321;SDS011;61553;48.994;8.940;2023-05-07T07:50:03;6.05;;;2.35;;
32321;SDS011;61553;48.994;8.940;2023-05-07T07:52:29;3.15;;;1.98;;
32321;SDS011;61553;48.994;8.940;2023-05-07T07:54:54;4.25;;;2.30;;
32321;SDS011;61553;48.994;8.940;2023-05-07T07:57:20;3.58;;;1.92;;
32321;SDS011;61553;48.994;8.940;2023-05-07T07:59:45;4.78;;;2.05;;
32321;SDS011;61553;48.994;8.940;2023-05-07T08:02:11;3.20;;;1.85;;
32321;SDS011;61553;48.994;8.940;2023-05-07T08:04:37;3.13;;;1.75;;
32321;SDS011;61553;48.994;8.940;2023-05-07T08:07:02;3.58;;;1.80;;
32321;SDS011;61553;48.994;8.940;2023-05-07T08:09:28;4.70;;;2.20;;
32321;SDS011;61553;48.994;8.940;2023-05-07T08:11:54;4.28;;;2.15;;
32321;SDS011;61553;48.994;8.940;2023-05-07T08:14:19;3.28;;;1.95;;
32321;SDS011;61553;48.994;8.940;2023-05-07T08:16:45;9.23;;;2.33;;
32321;SDS011;61553;48.994;8.940;2023-05-07T08:19:11;5.13;;;2.47;;
32321;SDS011;61553;48.994;8.940;2023-05-07T08:21:38;3.50;;;2.35;;
32321;SDS011;61553;48.994;8.940;2023-05-07T08:24:04;5.50;;;2.20;;
32321;SDS011;61553;48.994;8.940;2023-05-07T08:26:30;3.55;;;2.03;;
32321;SDS011;61553;48.994;8.940;2023-05-07T08:28:56;5.68;;;2.35;;
32321;SDS011;61553;48.994;8.940;2023-05-07T08:31:21;3.70;;;2.17;;
32321;SDS011;61553;48.994;8.940;2023-05-07T08:33:47;3.90;;;2.40;;
32321;SDS011;61553;48.994;8.940;2023-05-07T08:36:13;3.72;;;1.90;;
32321;SDS011;61553;48.994;8.940;2023-05-07T08:38:38;3.67;;;2.20;;
32321;SDS011;61553;48.994;8.940;2023-05-07T08:41:05;4.93;;;2.20;;
32321;SDS011;61553;48.994;8.940;2023-05-07T08:43:32;6.07;;;2.38;;
32321;SDS011;61553;48.994;8.940;2023-05-07T08:46:01;5.25;;;1.88;;
32321;SDS011;61553;48.994;8.940;2023-05-07T08:48:27;3.15;;;1.80;;
32321;SDS011;61553;48.994;8.940;2023-05-07T08:50:57;4.78;;;2.33;;
32321;SDS011;61553;48.994;8.940;2023-05-07T08:53:23;4.18;;;2.40;;
32321;SDS011;61553;48.994;8.940;2023-05-07T08:55:49;3.03;;;1.95;;
32321;SDS011;61553;48.994;8.940;2023-05-07T08:58:15;4.18;;;2.05;;
32321;SDS011;61553;48.994;8.940;2023-05-07T09:00:41;4.57;;;2.22;;
32321;SDS011;61553;48.994;8.940;2023-05-07T09:03:07;4.22;;;1.67;;
32321;SDS011;61553;48.994;8.940;2023-05-07T09:05:32;3.95;;;1.90;;
32321;SDS011;61553;48.994;8.940;2023-05-07T09:07:59;4.40;;;2.20;;
32321;SDS011;61553;48.994;8.940;2023-05-07T09:10:26;8.02;;;2.67;;
32321;SDS011;61553;48.994;8.940;2023-05-07T09:12:52;4.53;;;2.00;;
32321;SDS011;61553;48.994;8.940;2023-05-07T09:15:18;5.35;;;2.33;;
32321;SDS011;61553;48.994;8.940;2023-05-07T09:17:43;3.47;;;2.10;;
32321;SDS011;61553;48.994;8.940;2023-05-07T09:20:09;3.47;;;1.90;;
32321;SDS011;61553;48.994;8.940;2023-05-07T09:22:38;4.25;;;2.45;;
32321;SDS011;61553;48.994;8.940;2023-05-07T09:25:05;4.68;;;2.42;;
32321;SDS011;61553;48.994;8.940;2023-05-07T09:27:31;4.00;;;2.42;;
32321;SDS011;61553;48.994;8.940;2023-05-07T09:29:57;4.53;;;2.53;;
32321;SDS011;61553;48.994;8.940;2023-05-07T09:32:23;4.18;;;2.20;;
32321;SDS011;61553;48.994;8.940;2023-05-07T09:34:50;3.22;;;2.00;;
32321;SDS011;61553;48.994;8.940;2023-05-07T09:37:16;4.30;;;2.47;;
32321;SDS011;61553;48.994;8.940;2023-05-07T09:39:43;4.80;;;2.13;;
32321;SDS011;61553;48.994;8.940;2023-05-07T09:42:10;6.15;;;2.15;;
32321;SDS011;61553;48.994;8.940;2023-05-07T09:44:45;5.50;;;2.45;;
32321;SDS011;61553;48.994;8.940;2023-05-07T09:47:11;4.75;;;2.25;;
32321;SDS011;61553;48.994;8.940;2023-05-07T09:49:43;4.50;;;2.28;;
32321;SDS011;61553;48.994;8.940;2023-05-07T09:52:13;3.90;;;2.35;;
32321;SDS011;61553;48.994;8.940;2023-05-07T09:54:39;3.50;;;1.98;;
32321;SDS011;61553;48.994;8.940;2023-05-07T09:57:09;3.25;;;2.00;;
32321;SDS011;61553;48.994;8.940;2023-05-07T09:59:37;3.42;;;2.10;;
32321;SDS011;61553;48.994;8.940;2023-05-07T10:02:04;5.95;;;2.10;;
32321;SDS011;61553;48.994;8.940;2023-05-07T10:04:31;4.03;;;1.90;;
32321;SDS011;61553;48.994;8.940;2023-05-07T10:06:59;4.72;;;2.22;;
32321;SDS011;61553;48.994;8.940;2023-05-07T10:09:26;4.43;;;2.33;;
32321;SDS011;61553;48.994;8.940;2023-05-07T10:11:51;5.10;;;1.90;;
32321;SDS011;61553;48.994;8.940;2023-05-07T10:14:19;3.47;;;1.98;;
32321;SDS011;61553;48.994;8.940;2023-05-07T10:16:46;4.00;;;2.20;;
32321;SDS011;61553;48.994;8.940;2023-05-07T10:19:13;3.78;;;2.17;;
32321;SDS011;61553;48.994;8.940;2023-05-07T10:21:42;6.57;;;2.17;;
32321;SDS011;61553;48.994;8.940;2023-05-07T10:24:16;3.60;;;2.08;;
32321;SDS011;61553;48.994;8.940;2023-05-07T10:26:47;3.50;;;1.92;;
32321;SDS011;61553;48.994;8.940;2023-05-07T10:29:18;3.42;;;1.75;;
32321;SDS011;61553;48.994;8.940;2023-05-07T10:31:55;4.05;;;2.45;;
32321;SDS011;61553;48.994;8.940;2023-05-07T10:34:50;4.45;;;2.45;;
32321;SDS011;61553;48.994;8.940;2023-05-07T10:37:18;4.35;;;1.95;;
32321;SDS011;61553;48.994;8.940;2023-05-07T10:39:44;4.78;;;2.40;;
32321;SDS011;61553;48.994;8.940;2023-05-07T10:42:10;4.68;;;2.08;;
32321;SDS011;61553;48.994;8.940;2023-05-07T10:44:37;4.72;;;2.00;;
32321;SDS011;61553;48.994;8.940;2023-05-07T10:47:10;3.53;;;1.90;;
32321;SDS011;61553;48.994;8.940;2023-05-07T10:49:37;3.25;;;1.90;;
32321;SDS011;61553;48.994;8.940;2023-05-07T10:52:31;3.75;;;1.67;;
32321;SDS011;61553;48.994;8.940;2023-05-07T10:57:42;3.80;;;1.63;;
32321;SDS011;61553;48.994;8.940;2023-05-07T11:05:26;3.30;;;1.77;;
32321;SDS011;61553;48.994;8.940;2023-05-07T11:07:54;4.07;;;1.98;;
32321;SDS011;61553;48.994;8.940;2023-05-07T11:10:20;7.63;;;2.60;;
32321;SDS011;61553;48.994;8.940;2023-05-07T11:12:47;3.95;;;2.00;;
32321;SDS011;61553;48.994;8.940;2023-05-07T11:15:13;5.90;;;1.70;;
32321;SDS011;61553;48.994;8.940;2023-05-07T11:17:53;4.60;;;1.60;;
32321;SDS011;61553;48.994;8.940;2023-05-07T11:26:03;5.00;;;1.83;;
32321;SDS011;61553;48.994;8.940;2023-05-07T11:28:30;3.45;;;1.70;;
32321;SDS011;61553;48.994;8.940;2023-05-07T11:31:01;4.63;;;1.80;;
32321;SDS011;61553;48.994;8.940;2023-05-07T11:33:28;3.95;;;1.83;;
32321;SDS011;61553;48.994;8.940;2023-05-07T11:35:55;4.30;;;1.83;;
32321;SDS011;61553;48.994;8.940;2023-05-07T11:38:21;4.40;;;1.77;;
32321;SDS011;61553;48.994;8.940;2023-05-07T11:40:56;4.20;;;1.77;;
32321;SDS011;61553;48.994;8.940;2023-05-07T11:43:27;4.50;;;1.60;;
32321;SDS011;61553;48.994;8.940;2023-05-07T11:45:53;5.82;;;1.90;;
32321;SDS011;61553;48.994;8.940;2023-05-07T11:48:19;6.28;;;1.75;;
32321;SDS011;61553;48.994;8.940;2023-05-07T11:51:20;4.05;;;1.52;;
32321;SDS011;61553;48.994;8.940;2023-05-07T11:53:43;4.50;;;2.40;;
32321;SDS011;61553;48.994;8.940;2023-05-07T11:56:11;5.30;;;1.90;;
32321;SDS011;61553;48.994;8.940;2023-05-07T11:58:37;6.57;;;2.15;;
32321;SDS011;61553;48.994;8.940;2023-05-07T12:01:04;8.82;;;2.10;;
32321;SDS011;61553;48.994;8.940;2023-05-07T12:03:32;4.30;;;2.00;;
32321;SDS011;61553;48.994;8.940;2023-05-07T12:05:57;4.35;;;1.90;;
32321;SDS011;61553;48.994;8.940;2023-05-07T12:08:25;5.03;;;2.00;;
32321;SDS011;61553;48.994;8.940;2023-05-07T12:10:50;3.22;;;1.92;;
32321;SDS011;61553;48.994;8.940;2023-05-07T12:13:25;6.07;;;2.00;;
32321;SDS011;61553;48.994;8.940;2023-05-07T12:15:55;3.75;;;2.05;;
32321;SDS011;61553;48.994;8.940;2023-05-07T12:18:22;4.90;;;2.15;;
32321;SDS011;61553;48.994;8.940;2023-05-07T12:20:48;6.70;;;1.98;;
32321;SDS011;61553;48.994;8.940;2023-05-07T12:23:15;3.30;;;2.08;;
32321;SDS011;61553;48.994;8.940;2023-05-07T12:25:42;4.93;;;1.85;;
32321;SDS011;61553;48.994;8.940;2023-05-07T12:28:15;4.03;;;2.00;;
32321;SDS011;61553;48.994;8.940;2023-05-07T12:30:42;10.82;;;2.20;;
32321;SDS011;61553;48.994;8.940;2023-05-07T12:33:08;5.57;;;1.73;;
32321;SDS011;61553;48.994;8.940;2023-05-07T12:35:39;3.20;;;1.67;;
32321;SDS011;61553;48.994;8.940;2023-05-07T12:38:09;4.82;;;2.10;;
32321;SDS011;61553;48.994;8.940;2023-05-07T12:40:40;3.58;;;2.22;;
32321;SDS011;61553;48.994;8.940;2023-05-07T12:43:07;3.80;;;1.98;;
32321;SDS011;61553;48.994;8.940;2023-05-07T12:45:40;2.58;;;1.45;;
32321;SDS011;61553;48.994;8.940;2023-05-07T12:48:07;6.20;;;1.80;;
32321;SDS011;61553;48.994;8.940;2023-05-07T12:50:35;3.40;;;1.77;;
32321;SDS011;61553;48.994;8.940;2023-05-07T12:53:00;4.80;;;2.00;;
32321;SDS011;61553;48.994;8.940;2023-05-07T12:55:30;2.80;;;1.75;;
32321;SDS011;61553;48.994;8.940;2023-05-07T12:58:00;2.90;;;1.83;;
32321;SDS011;61553;48.994;8.940;2023-05-07T13:00:36;3.70;;;1.75;;
32321;SDS011;61553;48.994;8.940;2023-05-07T13:03:02;3.85;;;2.08;;
32321;SDS011;61553;48.994;8.940;2023-05-07T13:05:28;4.22;;;1.95;;
32321;SDS011;61553;48.994;8.940;2023-05-07T13:07:54;3.75;;;1.73;;
32321;SDS011;61553;48.994;8.940;2023-05-07T13:10:21;3.58;;;1.70;;
32321;SDS011;61553;48.994;8.940;2023-05-07T13:12:48;3.95;;;1.50;;
32321;SDS011;61553;48.994;8.940;2023-05-07T13:15:14;2.97;;;1.50;;
32321;SDS011;61553;48.994;8.940;2023-05-07T13:17:39;3.10;;;1.42;;
32321;SDS011;61553;48.994;8.940;2023-05-07T13:20:05;3.30;;;1.85;;
32321;SDS011;61553;48.994;8.940;2023-05-07T13:22:33;6.78;;;1.80;;
32321;SDS011;61553;48.994;8.940;2023-05-07T13:24:58;4.00;;;2.38;;
32321;SDS011;61553;48.994;8.940;2023-05-07T13:27:24;4.40;;;2.70;;
32321;SDS011;61553;48.994;8.940;2023-05-07T13:29:50;7.18;;;2.28;;
32321;SDS011;61553;48.994;8.940;2023-05-07T13:32:16;9.48;;;2.95;;
32321;SDS011;61553;48.994;8.940;2023-05-07T13:34:41;11.27;;;3.30;;
32321;SDS011;61553;48.994;8.940;2023-05-07T13:37:07;15.85;;;3.70;;
32321;SDS011;61553;48.994;8.940;2023-05-07T13:39:34;6.85;;;2.92;;
32321;SDS011;61553;48.994;8.940;2023-05-07T13:41:59;5.93;;;3.42;;
32321;SDS011;61553;48.994;8.940;2023-05-07T13:44:25;9.82;;;3.70;;
32321;SDS011;61553;48.994;8.940;2023-05-07T13:46:51;7.18;;;3.33;;
32321;SDS011;61553;48.994;8.940;2023-05-07T13:49:17;5.95;;;3.30;;
32321;SDS011;61553;48.994;8.940;2023-05-07T13:51:42;5.53;;;3.00;;
32321;SDS011;61553;48.994;8.940;2023-05-07T13:54:08;6.18;;;2.92;;
32321;SDS011;61553;48.994;8.940;2023-05-07T13:56:34;5.93;;;2.35;;
32321;SDS011;61553;48.994;8.940;2023-05-07T13:59:00;7.78;;;2.67;;
32321;SDS011;61553;48.994;8.940;2023-05-07T14:01:26;4.25;;;2.15;;
32321;SDS011;61553;48.994;8.940;2023-05-07T14:03:51;5.10;;;1.90;;
32321;SDS011;61553;48.994;8.940;2023-05-07T14:06:17;7.15;;;1.90;;
32321;SDS011;61553;48.994;8.940;2023-05-07T14:08:43;3.90;;;1.58;;
32321;SDS011;61553;48.994;8.940;2023-05-07T14:11:08;6.38;;;1.55;;
32321;SDS011;61553;48.994;8.940;2023-05-07T14:13:34;5.00;;;1.95;;
32321;SDS011;61553;48.994;8.940;2023-05-07T14:15:59;4.93;;;1.95;;
32321;SDS011;61553;48.994;8.940;2023-05-07T14:18:25;4.55;;;2.10;;
32321;SDS011;61553;48.994;8.940;2023-05-07T14:20:51;9.73;;;2.60;;
32321;SDS011;61553;48.994;8.940;2023-05-07T14:23:17;4.35;;;2.28;;
32321;SDS011;61553;48.994;8.940;2023-05-07T14:25:44;5.47;;;2.40;;
32321;SDS011;61553;48.994;8.940;2023-05-07T14:28:12;5.78;;;2.80;;
32321;SDS011;61553;48.994;8.940;2023-05-07T14:30:38;5.10;;;2.17;;
32321;SDS011;61553;48.994;8.940;2023-05-07T14:33:04;7.03;;;2.17;;
32321;SDS011;61553;48.994;8.940;2023-05-07T14:35:29;5.28;;;2.38;;
32321;SDS011;61553;48.994;8.940;2023-05-07T14:37:55;5.70;;;2.38;;
32321;SDS011;61553;48.994;8.940;2023-05-07T14:40:21;6.80;;;2.33;;
32321;SDS011;61553;48.994;8.940;2023-05-07T14:42:46;5.28;;;2.53;;
32321;SDS011;61553;48.994;8.940;2023-05-07T14:45:12;4.72;;;2.42;;
32321;SDS011;61553;48.994;8.940;2023-05-07T14:47:37;7.10;;;2.63;;
32321;SDS011;61553;48.994;8.940;2023-05-07T14:50:03;5.35;;;2.20;;
32321;SDS011;61553;48.994;8.940;2023-05-07T14:52:29;6.25;;;2.35;;
32321;SDS011;61553;48.994;8.940;2023-05-07T14:54:55;6.00;;;2.78;;
32321;SDS011;61553;48.994;8.940;2023-05-07T14:57:21;7.00;;;2.22;;
32321;SDS011;61553;48.994;8.940;2023-05-07T14:59:46;5.50;;;2.38;;